Idar Oberstein, Germany

2:17 AM CET on December 25, 2014 (GMT +0100)
IRHEINLA46 | Change Station
CLOSE
Current Station
Personal Weather Station
Location: Idar-Oberstein, RHEINLAND-PFALZ
Elevation: 971 ft
Nearby Weather Stations

Elev 971 ft 49.72 °N, 7.30 °E | Updated 2 minutes ago

Overcast
Overcast
42.6 °F
Feels Like 43 °F
N
2.2
Wind Variable Wind from ESE
Gusts 3.0 mph

Today
High -- | Low -- °F
--% Chance of Precip.
Yesterday
High -- | Low -- °F
Precip. -- in
8:26 AM 4:34 PM
Waxing Crescent, 12% visible
Pressure 30.18 in
Visibility 6.2 miles
Clouds Mostly Cloudy 2300 ft
Overcast 2800 ft
Windchill 43 °F
Dew Point 37 °F
Humidity 80%
Rainfall 0.00 in
Snow Depth Not available.
UV 0 out of 12
Pollen Not available.
Air Quality Not available.
Flu Activity Not available.
SPECI ETAR 250112Z AUTO 27006KT 9999 BKN023 OVC028 06/05 A3018 RMK AO2 CIG 020V028

More Conditions Fewer Conditions

Pressure 30.18 in
Visibility 6.2 miles
Clouds Mostly Cloudy 2300 ft
Overcast 2800 ft
Windchill 43 °F
Dew Point 37 °F
Humidity 80%
Rainfall 0.00 in
Snow Depth Not available.
UV 0 out of 12
Pollen Not available.
Air Quality Not available.
Flu Activity Not available.
SPECI ETAR 250112Z AUTO 27006KT 9999 BKN023 OVC028 06/05 A3018 RMK AO2 CIG 020V028

More Conditions Fewer Conditions

10-Day Weather Forecast

Almanac

Astronomy

Dec. 25, 2014 Rise Set
Actual Time
Civil Twilight
Nautical Twilight
Astronomical Twilight
Moon
Length of Visible Light
Length of Day
Tomorrow will be .
, % of the Moon is Illuminated

Today's Extremes

Country Highs Country Lows

Community

WunderPhotos

Upload Photos

1,780,203 photos uploaded!

WunderBlogs® & News

Nearby

Air Quality

  Air Quality AQ Index Pollutant
Not available.

Snow Depth

Station Depth Elevation

Earthquake Activity

City Distance Mag. Time & Date
Minimum magnitude displayed is 2.5.

Coastal Water Temperatures

Place Temperature

Nearby Weather Stations